createdAt,value
2017-06-22T00:01:36.955Z,24.60
2017-06-22T00:04:05.376Z,24.50
2017-06-22T00:06:34.583Z,24.40
2017-06-22T00:09:02.997Z,24.30
2017-06-22T00:11:31.447Z,24.30
2017-06-22T00:13:59.897Z,24.40
2017-06-22T00:16:28.328Z,24.40
2017-06-22T00:18:56.744Z,24.30
2017-06-22T00:21:25.184Z,24.30
2017-06-22T00:23:53.653Z,24.20
2017-06-22T00:26:22.063Z,24.20
2017-06-22T00:28:50.508Z,24.20
2017-06-22T00:31:18.942Z,24.10
2017-06-22T00:33:47.356Z,24.00
2017-06-22T00:36:15.824Z,24.00
2017-06-22T00:38:45.015Z,23.80
2017-06-22T00:41:14.207Z,23.80
2017-06-22T00:43:42.655Z,23.70
2017-06-22T00:46:11.095Z,23.80
2017-06-22T00:48:39.568Z,23.80
2017-06-22T00:51:07.668Z,23.80
2017-06-22T00:53:36.084Z,23.70
2017-06-22T00:56:04.532Z,23.70
2017-06-22T00:58:32.999Z,23.60
2017-06-22T01:01:01.435Z,23.60
2017-06-22T01:03:29.943Z,23.60
2017-06-22T01:05:58.446Z,23.60
2017-06-22T01:08:26.885Z,23.70
2017-06-22T01:10:56.085Z,23.60
2017-06-22T01:13:25.427Z,23.50
2017-06-22T01:15:53.891Z,23.50
2017-06-22T01:18:22.323Z,23.50
2017-06-22T01:20:50.837Z,23.60
2017-06-22T01:23:19.251Z,23.60
2017-06-22T01:25:47.680Z,23.60
2017-06-22T01:28:16.920Z,23.60
2017-06-22T01:30:45.344Z,23.60
2017-06-22T01:33:13.440Z,23.50
2017-06-22T01:35:41.929Z,23.50
2017-06-22T01:38:10.351Z,23.50
2017-06-22T01:40:38.799Z,23.50
2017-06-22T01:43:06.888Z,23.40
2017-06-22T01:45:35.016Z,23.30
2017-06-22T01:48:03.435Z,23.30
2017-06-22T01:50:31.182Z,23.30
2017-06-22T01:52:58.903Z,23.20
2017-06-22T01:55:26.962Z,23.20
2017-06-22T01:57:55.468Z,23.10
2017-06-22T02:00:24.648Z,23.00
2017-06-22T02:02:53.836Z,23.10
2017-06-22T02:05:22.275Z,23.00
2017-06-22T02:07:50.716Z,23.10
2017-06-22T02:10:19.924Z,23.00
2017-06-22T02:12:48.387Z,23.00
2017-06-22T02:15:17.576Z,22.90
2017-06-22T02:17:46.789Z,23.00
2017-06-22T02:20:16.094Z,22.90
2017-06-22T02:22:44.508Z,22.90
2017-06-22T02:25:12.928Z,22.90
2017-06-22T02:27:41.379Z,22.90
2017-06-22T02:30:09.848Z,22.90
2017-06-22T02:32:38.288Z,22.80
2017-06-22T02:35:07.499Z,22.70
2017-06-22T02:37:35.929Z,22.70
2017-06-22T02:40:04.344Z,22.70
2017-06-22T02:42:32.829Z,22.70
2017-06-22T02:45:01.306Z,22.70
2017-06-22T02:47:29.734Z,22.70
2017-06-22T02:49:58.191Z,22.60
2017-06-22T02:52:26.603Z,22.50
2017-06-22T02:54:55.014Z,22.50
2017-06-22T02:57:24.210Z,22.40
2017-06-22T02:59:53.400Z,22.40
2017-06-22T03:02:22.764Z,22.40
2017-06-22T03:04:51.296Z,22.30
2017-06-22T03:07:19.016Z,22.40
2017-06-22T03:09:47.431Z,22.40
2017-06-22T03:12:16.741Z,22.30
2017-06-22T03:14:45.142Z,22.30
2017-06-22T03:17:13.556Z,22.30
2017-06-22T03:19:41.998Z,22.30
2017-06-22T03:22:10.452Z,22.30
2017-06-22T03:24:38.930Z,22.10
2017-06-22T03:27:08.135Z,22.00
2017-06-22T03:29:36.551Z,22.00
2017-06-22T03:32:04.985Z,21.90
2017-06-22T03:34:33.418Z,21.90
2017-06-22T03:37:01.824Z,21.90
2017-06-22T03:39:31.012Z,21.80
2017-06-22T03:41:59.436Z,21.80
2017-06-22T03:44:27.847Z,21.90
2017-06-22T03:46:56.267Z,22.00
2017-06-22T03:49:25.479Z,22.20
2017-06-22T03:51:53.966Z,22.10
2017-06-22T03:54:22.396Z,22.30
2017-06-22T03:56:50.944Z,22.40
2017-06-22T03:59:19.396Z,22.40
2017-06-22T04:01:47.807Z,22.50
2017-06-22T04:04:16.255Z,22.50
2017-06-22T04:06:44.673Z,22.50
2017-06-22T04:09:13.199Z,22.50
2017-06-22T04:11:43.375Z,22.40
2017-06-22T04:14:11.820Z,22.40
2017-06-22T04:16:40.253Z,22.30
2017-06-22T04:19:08.800Z,22.30
2017-06-22T04:21:37.248Z,22.30
2017-06-22T04:24:06.427Z,22.20
2017-06-22T04:26:35.693Z,22.20
2017-06-22T04:29:04.110Z,22.20
2017-06-22T04:31:33.298Z,22.20
2017-06-22T04:34:02.536Z,22.20
2017-06-22T04:36:30.948Z,22.10
2017-06-22T04:38:59.416Z,22.30
2017-06-22T04:41:27.851Z,22.20
2017-06-22T04:43:57.032Z,22.20
2017-06-22T04:46:25.441Z,22.20
2017-06-22T04:48:53.925Z,22.30
2017-06-22T04:51:22.396Z,22.30
2017-06-22T04:53:50.876Z,22.30
2017-06-22T04:56:19.356Z,22.30
2017-06-22T04:58:47.763Z,22.30
2017-06-22T05:01:15.839Z,22.30
2017-06-22T05:03:44.383Z,22.30
2017-06-22T05:06:12.796Z,22.40
2017-06-22T05:08:41.224Z,22.40
2017-06-22T05:11:10.610Z,22.40
2017-06-22T05:13:39.003Z,22.40
2017-06-22T05:16:08.220Z,22.50
2017-06-22T05:18:36.705Z,22.40
2017-06-22T05:21:05.185Z,22.50
2017-06-22T05:23:34.284Z,22.50
2017-06-22T05:26:02.722Z,22.60
2017-06-22T05:28:31.136Z,22.60
2017-06-22T05:30:59.620Z,22.70
2017-06-22T05:33:28.094Z,22.80
2017-06-22T05:35:57.328Z,23.00
2017-06-22T05:38:25.763Z,23.00
2017-06-22T05:40:54.973Z,22.90
2017-06-22T05:43:23.449Z,22.90
2017-06-22T05:45:51.870Z,23.00
2017-06-22T05:48:20.336Z,23.00
2017-06-22T05:50:48.747Z,23.10
2017-06-22T05:53:17.187Z,23.20
2017-06-22T05:55:45.615Z,23.20
2017-06-22T05:58:14.028Z,23.30
2017-06-22T06:00:42.447Z,23.30
2017-06-22T06:03:10.896Z,23.40
2017-06-22T06:05:40.008Z,23.60
2017-06-22T06:08:08.504Z,23.70
2017-06-22T06:10:36.939Z,23.80
2017-06-22T06:13:05.407Z,24.00
2017-06-22T06:15:34.583Z,24.20
2017-06-22T06:18:03.016Z,24.10
2017-06-22T06:20:31.439Z,24.20
2017-06-22T06:22:59.945Z,24.40
2017-06-22T06:25:28.399Z,24.50
2017-06-22T06:27:56.808Z,24.60
2017-06-22T06:30:25.220Z,24.70
2017-06-22T06:32:53.659Z,24.60
2017-06-22T06:35:22.078Z,24.70
2017-06-22T06:37:50.496Z,24.70
2017-06-22T06:40:18.928Z,24.90
2017-06-22T06:42:47.352Z,24.90
2017-06-22T06:45:15.857Z,25.00
2017-06-22T06:47:44.299Z,25.10
2017-06-22T06:50:12.813Z,25.20
2017-06-22T06:52:41.238Z,25.20
2017-06-22T06:55:09.673Z,25.30
2017-06-22T06:57:38.112Z,25.30
2017-06-22T07:00:06.548Z,25.40
2017-06-22T07:02:34.999Z,25.40
2017-06-22T07:05:04.181Z,25.50
2017-06-22T07:07:32.583Z,25.50
2017-06-22T07:10:01.060Z,25.60
2017-06-22T07:12:29.480Z,25.70
2017-06-22T07:14:57.914Z,25.80
2017-06-22T07:17:27.124Z,26.00
2017-06-22T07:19:56.307Z,26.10
2017-06-22T07:22:25.483Z,26.20
2017-06-22T07:24:53.999Z,26.20
2017-06-22T07:27:22.413Z,26.30
2017-06-22T07:29:50.869Z,26.40
2017-06-22T07:32:19.363Z,26.40
2017-06-22T07:34:47.774Z,26.50
2017-06-22T07:37:16.184Z,26.60
2017-06-22T07:39:44.671Z,26.60
2017-06-22T07:42:13.155Z,26.70
2017-06-22T07:44:41.596Z,26.70
2017-06-22T07:47:10.023Z,26.80
2017-06-22T07:49:38.433Z,26.90
2017-06-22T07:52:06.853Z,26.90
2017-06-22T07:54:35.359Z,27.00
2017-06-22T07:57:03.790Z,27.00
2017-06-22T07:59:32.199Z,27.10
2017-06-22T08:02:01.435Z,27.20
2017-06-22T08:04:29.889Z,27.20
2017-06-22T08:06:58.316Z,27.30
2017-06-22T08:09:26.756Z,27.30
2017-06-22T08:11:55.864Z,27.40
2017-06-22T08:14:24.275Z,27.50
2017-06-22T08:16:52.731Z,27.60
2017-06-22T08:19:21.211Z,27.70
2017-06-22T08:21:49.653Z,27.60
2017-06-22T08:24:18.329Z,27.60
2017-06-22T08:26:47.564Z,27.60
2017-06-22T08:29:15.994Z,27.60
2017-06-22T08:31:45.212Z,27.70
2017-06-22T08:34:13.660Z,27.70
2017-06-22T08:36:42.075Z,27.70
2017-06-22T08:39:10.530Z,27.80
2017-06-22T08:41:38.941Z,27.90
2017-06-22T08:44:07.360Z,27.90
2017-06-22T08:46:35.898Z,28.00
2017-06-22T08:49:04.388Z,27.90
2017-06-22T08:51:32.803Z,28.00
2017-06-22T08:54:01.240Z,28.10
2017-06-22T08:56:29.671Z,28.10
2017-06-22T08:58:58.088Z,28.10
2017-06-22T09:01:26.525Z,28.20
2017-06-22T09:03:54.752Z,28.10
2017-06-22T09:06:23.181Z,28.10
2017-06-22T09:08:52.520Z,28.10
2017-06-22T09:11:20.995Z,28.20
2017-06-22T09:13:50.450Z,28.30
2017-06-22T09:16:18.892Z,28.30
2017-06-22T09:18:47.329Z,28.30
2017-06-22T09:21:15.835Z,28.30
2017-06-22T09:23:45.138Z,28.40
2017-06-22T09:26:13.582Z,28.40
2017-06-22T09:28:41.992Z,28.50
2017-06-22T09:31:11.192Z,28.50
2017-06-22T09:33:39.675Z,28.50
2017-06-22T09:36:08.103Z,28.50
2017-06-22T09:38:36.543Z,28.40
2017-06-22T09:41:04.961Z,28.40
2017-06-22T09:43:33.408Z,28.50
2017-06-22T09:46:01.869Z,28.50
2017-06-22T09:48:30.307Z,28.50
2017-06-22T09:50:58.726Z,29.00
2017-06-22T09:53:27.935Z,29.10
2017-06-22T09:55:56.407Z,29.10
2017-06-22T09:58:24.845Z,29.00
2017-06-22T10:00:53.293Z,29.00
2017-06-22T10:03:21.748Z,29.10
2017-06-22T10:05:50.180Z,29.20
2017-06-22T10:08:18.611Z,29.30
2017-06-22T10:10:47.045Z,29.40
2017-06-22T10:13:15.455Z,29.50
2017-06-22T10:15:43.957Z,29.50
2017-06-22T10:18:12.374Z,29.40
2017-06-22T10:20:40.796Z,29.30
2017-06-22T10:23:09.236Z,29.10
2017-06-22T10:25:37.660Z,29.10
2017-06-22T10:28:06.075Z,29.10
2017-06-22T10:30:34.527Z,29.20
2017-06-22T10:33:02.973Z,29.20
2017-06-22T10:35:31.809Z,29.10
2017-06-22T10:38:00.289Z,29.00
2017-06-22T10:40:28.740Z,29.10
2017-06-22T10:42:57.163Z,29.20
2017-06-22T10:45:25.621Z,29.30
2017-06-22T10:47:54.039Z,29.20
2017-06-22T10:50:22.453Z,29.00
2017-06-22T10:52:50.913Z,29.00
2017-06-22T10:55:19.412Z,29.00
2017-06-22T10:57:47.832Z,29.00
2017-06-22T11:00:16.287Z,29.40
2017-06-22T11:02:44.707Z,29.90
2017-06-22T11:05:13.131Z,30.30
2017-06-22T11:07:41.581Z,30.60
2017-06-22T11:10:10.001Z,30.80
2017-06-22T11:12:38.425Z,31.00
2017-06-22T11:15:06.885Z,31.20
2017-06-22T11:17:35.303Z,31.40
2017-06-22T11:20:04.488Z,31.60
2017-06-22T11:22:32.937Z,31.60
2017-06-22T11:25:01.355Z,31.80
2017-06-22T11:27:30.535Z,32.00
2017-06-22T11:29:59.173Z,31.90
2017-06-22T11:32:27.609Z,32.00
2017-06-22T11:34:56.088Z,32.30
2017-06-22T11:37:24.548Z,32.40
2017-06-22T11:39:52.957Z,32.50
2017-06-22T11:42:22.161Z,32.50
2017-06-22T11:44:51.386Z,32.70
2017-06-22T11:47:19.823Z,32.60
2017-06-22T11:49:48.285Z,32.80
2017-06-22T11:52:17.061Z,32.90
2017-06-22T11:54:45.624Z,32.90
2017-06-22T11:57:14.413Z,33.00
2017-06-22T11:59:43.046Z,33.00
2017-06-22T12:02:12.223Z,33.00
2017-06-22T12:04:40.656Z,33.00
2017-06-22T12:07:09.113Z,33.00
2017-06-22T12:09:38.702Z,33.30
2017-06-22T12:12:07.904Z,33.30
2017-06-22T12:14:36.494Z,33.30
2017-06-22T12:17:06.496Z,33.50
2017-06-22T12:19:35.000Z,33.50
2017-06-22T12:22:03.478Z,33.40
2017-06-22T12:24:33.035Z,33.40
2017-06-22T12:27:01.843Z,33.40
2017-06-22T12:29:30.858Z,33.50
2017-06-22T12:31:59.518Z,33.60
2017-06-22T12:34:28.308Z,33.60
2017-06-22T12:36:56.821Z,33.70
2017-06-22T12:39:25.326Z,33.70
2017-06-22T12:41:54.011Z,33.80
2017-06-22T12:44:22.669Z,33.80
2017-06-22T12:46:51.369Z,33.80
2017-06-22T12:49:19.913Z,33.80
2017-06-22T12:51:49.268Z,34.00
2017-06-22T12:54:18.614Z,34.00
2017-06-22T12:56:48.914Z,34.10
2017-06-22T12:59:17.430Z,34.00
2017-06-22T13:01:45.927Z,33.90
2017-06-22T13:04:14.565Z,33.70
2017-06-22T13:06:43.081Z,33.50
2017-06-22T13:09:11.508Z,33.30
2017-06-22T13:11:40.150Z,33.20
2017-06-22T13:14:08.626Z,32.90
2017-06-22T13:16:37.104Z,32.20
2017-06-22T13:19:05.538Z,31.90
2017-06-22T13:21:33.961Z,32.00
2017-06-22T13:24:02.445Z,32.10
2017-06-22T13:26:30.861Z,32.20
2017-06-22T13:28:59.304Z,32.30
2017-06-22T13:31:27.760Z,32.30
2017-06-22T13:33:56.953Z,32.20
2017-06-22T13:36:26.193Z,32.20
2017-06-22T13:38:54.631Z,32.20
2017-06-22T13:41:23.827Z,32.10
2017-06-22T13:43:52.341Z,32.10
2017-06-22T13:46:20.778Z,32.10
2017-06-22T13:48:49.278Z,32.00
2017-06-22T13:51:18.464Z,31.90
2017-06-22T13:53:47.660Z,31.70
2017-06-22T13:56:16.862Z,31.40
2017-06-22T13:58:46.089Z,31.00
2017-06-22T14:01:14.544Z,30.90
2017-06-22T14:03:42.987Z,30.70
2017-06-22T14:06:11.395Z,30.70
2017-06-22T14:08:40.598Z,30.90
2017-06-22T14:11:09.036Z,30.90
2017-06-22T14:13:37.772Z,31.10
2017-06-22T14:16:06.230Z,31.30
2017-06-22T14:18:34.643Z,31.40
2017-06-22T14:21:03.135Z,31.50
2017-06-22T14:23:31.583Z,31.50
2017-06-22T14:26:00.016Z,31.60
2017-06-22T14:28:29.362Z,31.70
2017-06-22T14:30:57.820Z,31.80
2017-06-22T14:33:27.003Z,31.80
2017-06-22T14:35:55.445Z,31.70
2017-06-22T14:38:23.892Z,31.70
2017-06-22T14:40:53.076Z,31.70
2017-06-22T14:43:21.550Z,31.70
2017-06-22T14:45:50.775Z,31.70
2017-06-22T14:48:19.285Z,31.70
2017-06-22T14:50:47.759Z,31.70
2017-06-22T14:53:16.287Z,31.80
2017-06-22T14:55:45.443Z,31.90
2017-06-22T14:58:13.879Z,31.80
2017-06-22T15:00:43.094Z,31.90
2017-06-22T15:03:11.539Z,31.80
2017-06-22T15:05:40.757Z,31.90
2017-06-22T15:08:09.989Z,31.80
2017-06-22T15:10:38.421Z,31.80
2017-06-22T15:13:07.640Z,31.60
2017-06-22T15:15:36.456Z,31.60
2017-06-22T15:18:05.593Z,31.50
2017-06-22T15:20:34.815Z,31.70
2017-06-22T15:23:04.022Z,31.80
2017-06-22T15:25:32.461Z,31.80
2017-06-22T15:28:00.896Z,31.80
2017-06-22T15:30:29.341Z,31.90
2017-06-22T15:32:57.775Z,31.90
2017-06-22T15:35:26.189Z,31.80
2017-06-22T15:37:55.396Z,31.80
2017-06-22T15:40:23.828Z,31.80
2017-06-22T15:42:52.263Z,31.80
2017-06-22T15:45:20.766Z,31.70
2017-06-22T15:47:49.170Z,31.70
2017-06-22T15:50:17.585Z,31.60
2017-06-22T15:52:46.796Z,31.70
2017-06-22T15:55:15.216Z,31.60
2017-06-22T15:57:43.628Z,31.80
2017-06-22T16:00:12.881Z,31.90
2017-06-22T16:02:41.332Z,31.90
2017-06-22T16:05:09.887Z,32.00
2017-06-22T16:07:39.096Z,30.90
2017-06-22T16:10:07.529Z,30.80
2017-06-22T16:12:35.949Z,30.40
2017-06-22T16:15:05.605Z,30.20
2017-06-22T16:17:34.024Z,30.20
2017-06-22T16:20:03.203Z,30.20
2017-06-22T16:22:31.660Z,30.20
2017-06-22T16:25:00.127Z,30.20
2017-06-22T16:27:28.537Z,30.20
2017-06-22T16:29:56.982Z,30.20
2017-06-22T16:32:25.403Z,30.00
2017-06-22T16:34:53.840Z,30.00
2017-06-22T16:37:22.271Z,30.00
2017-06-22T16:39:51.472Z,30.00
2017-06-22T16:42:19.947Z,30.00
2017-06-22T16:44:49.459Z,30.20
2017-06-22T16:47:18.045Z,30.20
2017-06-22T16:49:46.472Z,30.20
2017-06-22T16:52:14.914Z,30.20
2017-06-22T16:54:43.348Z,30.10
2017-06-22T16:57:11.775Z,30.00
2017-06-22T16:59:40.243Z,30.30
2017-06-22T17:02:08.727Z,30.60
2017-06-22T17:04:37.155Z,30.90
2017-06-22T17:07:05.597Z,31.00
2017-06-22T17:09:34.018Z,31.20
2017-06-22T17:12:02.556Z,31.30
2017-06-22T17:14:31.209Z,31.30
2017-06-22T17:16:59.639Z,31.40
2017-06-22T17:19:28.065Z,31.50
2017-06-22T17:21:57.260Z,31.60
2017-06-22T17:24:26.674Z,31.70
2017-06-22T17:26:55.104Z,31.70
2017-06-22T17:29:23.568Z,31.70
2017-06-22T17:31:52.010Z,31.70
2017-06-22T17:34:21.523Z,31.60
2017-06-22T17:36:49.963Z,31.60
2017-06-22T17:39:18.381Z,31.60
2017-06-22T17:41:46.796Z,31.50
2017-06-22T17:44:15.261Z,31.40
2017-06-22T17:46:43.672Z,31.40
2017-06-22T17:49:12.124Z,31.30
2017-06-22T17:51:40.576Z,31.30
2017-06-22T17:54:09.010Z,31.30
2017-06-22T17:56:37.425Z,31.20
2017-06-22T17:59:06.634Z,31.00
2017-06-22T18:01:35.069Z,31.00
2017-06-22T18:04:03.496Z,30.90
2017-06-22T18:06:31.928Z,30.80
2017-06-22T18:09:00.361Z,30.70
2017-06-22T18:11:28.779Z,30.70
2017-06-22T18:13:57.241Z,30.60
2017-06-22T18:16:25.660Z,30.60
2017-06-22T18:18:54.097Z,30.50
2017-06-22T18:21:22.539Z,30.50
2017-06-22T18:23:50.944Z,30.50
2017-06-22T18:26:19.383Z,30.40
2017-06-22T18:28:48.595Z,29.80
2017-06-22T18:31:17.069Z,29.70
2017-06-22T18:33:45.500Z,29.50
2017-06-22T18:36:13.949Z,29.40
2017-06-22T18:38:42.377Z,29.30
2017-06-22T18:41:10.812Z,29.20
2017-06-22T18:43:39.255Z,29.10
2017-06-22T18:46:07.689Z,29.00
2017-06-22T18:48:36.094Z,28.90
2017-06-22T18:51:04.609Z,28.90
2017-06-22T18:53:33.068Z,28.80
2017-06-22T18:56:02.253Z,28.80
2017-06-22T18:58:30.746Z,28.70
2017-06-22T19:00:59.954Z,28.60
2017-06-22T19:03:28.398Z,28.60
2017-06-22T19:05:56.861Z,28.60
2017-06-22T19:08:25.269Z,28.50
2017-06-22T19:10:54.473Z,28.50
2017-06-22T19:13:22.728Z,28.50
2017-06-22T19:15:51.169Z,28.50
2017-06-22T19:18:19.624Z,28.40
2017-06-22T19:20:48.093Z,28.40
2017-06-22T19:23:17.271Z,28.40
2017-06-22T19:25:45.689Z,28.30
2017-06-22T19:28:14.125Z,28.40
2017-06-22T19:30:42.557Z,28.40
2017-06-22T19:33:10.977Z,28.30
2017-06-22T19:35:39.444Z,28.20
2017-06-22T19:38:07.861Z,28.10
2017-06-22T19:40:36.301Z,28.10
2017-06-22T19:43:04.749Z,28.00
2017-06-22T19:45:33.179Z,28.00
2017-06-22T19:48:01.682Z,28.00
2017-06-22T19:50:30.136Z,28.00
2017-06-22T19:52:59.340Z,27.80
2017-06-22T19:55:27.841Z,27.80
2017-06-22T19:57:56.300Z,27.60
2017-06-22T20:00:24.741Z,27.60
2017-06-22T20:02:53.165Z,27.50
2017-06-22T20:05:22.382Z,27.20
2017-06-22T20:07:50.860Z,27.20
2017-06-22T20:10:19.313Z,27.10
2017-06-22T20:12:47.758Z,27.10
2017-06-22T20:15:16.176Z,27.10
2017-06-22T20:17:44.591Z,27.20
2017-06-22T20:20:13.051Z,27.10
2017-06-22T20:22:41.526Z,27.20
2017-06-22T20:25:09.964Z,27.20
2017-06-22T20:27:38.596Z,27.20
2017-06-22T20:30:06.772Z,27.20
2017-06-22T20:32:35.043Z,27.10
2017-06-22T20:35:03.513Z,27.00
2017-06-22T20:37:32.711Z,26.90
2017-06-22T20:40:01.904Z,26.90
2017-06-22T20:42:30.334Z,26.90
2017-06-22T20:44:58.744Z,26.80
2017-06-22T20:47:27.174Z,26.80
2017-06-22T20:49:55.642Z,26.70
2017-06-22T20:52:24.063Z,26.60
2017-06-22T20:54:52.487Z,26.40
2017-06-22T20:57:20.932Z,26.30
2017-06-22T20:59:49.364Z,26.40
2017-06-22T21:02:17.872Z,26.40
2017-06-22T21:04:46.309Z,26.40
2017-06-22T21:07:14.735Z,26.40
2017-06-22T21:09:44.794Z,26.30
2017-06-22T21:12:13.291Z,26.20
2017-06-22T21:14:41.748Z,26.00
2017-06-22T21:17:11.075Z,25.60
2017-06-22T21:19:39.518Z,25.50
2017-06-22T21:22:08.558Z,25.30
2017-06-22T21:24:36.990Z,25.30
2017-06-22T21:27:05.462Z,25.40
2017-06-22T21:29:34.660Z,25.40
2017-06-22T21:32:03.861Z,25.30
2017-06-22T21:34:33.146Z,25.30
2017-06-22T21:37:01.567Z,25.30
2017-06-22T21:39:29.982Z,25.30
2017-06-22T21:41:58.426Z,25.20
2017-06-22T21:44:26.848Z,25.10
2017-06-22T21:46:55.291Z,25.10
2017-06-22T21:49:23.940Z,25.20
2017-06-22T21:51:52.372Z,25.10
2017-06-22T21:54:20.802Z,25.10
2017-06-22T21:56:49.256Z,25.10
2017-06-22T21:59:18.445Z,25.00
2017-06-22T22:01:46.860Z,25.00
2017-06-22T22:04:15.341Z,24.80
2017-06-22T22:06:43.780Z,24.80
2017-06-22T22:09:12.305Z,24.70
2017-06-22T22:11:40.771Z,24.70
2017-06-22T22:14:09.211Z,24.60
2017-06-22T22:16:37.647Z,24.70
2017-06-22T22:19:06.308Z,24.60
2017-06-22T22:21:35.503Z,24.50
2017-06-22T22:24:04.683Z,24.40
2017-06-22T22:26:33.201Z,24.30
2017-06-22T22:29:01.639Z,24.30
2017-06-22T22:31:30.335Z,24.20
2017-06-22T22:33:58.781Z,24.10
2017-06-22T22:36:27.197Z,23.90
2017-06-22T22:38:56.401Z,23.70
2017-06-22T22:41:25.640Z,23.80
2017-06-22T22:43:54.064Z,23.70
2017-06-22T22:46:22.574Z,23.70
2017-06-22T22:48:51.051Z,23.70
2017-06-22T22:51:19.497Z,23.70
2017-06-22T22:53:47.910Z,23.60
2017-06-22T22:56:16.369Z,23.50
2017-06-22T22:58:45.554Z,23.50
2017-06-22T23:01:14.076Z,23.50
2017-06-22T23:03:42.544Z,23.60
2017-06-22T23:06:10.966Z,23.50
2017-06-22T23:08:39.413Z,23.50
2017-06-22T23:11:07.866Z,23.50
2017-06-22T23:13:36.328Z,23.40
2017-06-22T23:16:04.756Z,23.40
2017-06-22T23:18:33.224Z,23.30
2017-06-22T23:21:02.045Z,23.30
2017-06-22T23:23:30.441Z,23.30
2017-06-22T23:25:58.881Z,23.30
2017-06-22T23:28:27.297Z,23.20
2017-06-22T23:30:55.720Z,23.20
2017-06-22T23:33:24.170Z,23.10
2017-06-22T23:35:52.592Z,23.00
2017-06-22T23:38:21.016Z,23.00
2017-06-22T23:40:49.455Z,23.00
2017-06-22T23:43:17.917Z,22.90
2017-06-22T23:45:46.329Z,22.90
2017-06-22T23:48:14.776Z,23.00
2017-06-22T23:50:43.262Z,23.00
2017-06-22T23:53:11.696Z,22.90
2017-06-22T23:55:40.219Z,22.80
2017-06-22T23:58:08.643Z,22.70
